Chronik & Geschichte

Boeing Stearman am Flugplatz Konstanz

Mit seiner 107-jährigen Geschichte ist Konstanz der älteste Verkehrslandeplatz Deutschlands. Lesen Sie unsere Festschrift zum 100-jährigen Platzjubiläum oder entdecken Sie die ausführliche Flugplatzchronik auf der Website der Initiative PRO Flugplatz Konstanz.

Live am Platz

Die Bilder unserer Webcams werden alle 5 Minuten aktualisiert.

Sonnenaufgang:

03:26 UTC / 05:26 Lokal

Sonnenuntergang:

19:27 UTC / 21:27 Lokal

METAR (30.06.2022 01:20 UTC):

EDNY 300120Z AUTO 07003KT 9999 FEW160/// 16/15 Q1014
VFR

TAF (29.06.2022 23:00 UTC):

TAF EDNY 292300Z 3000/3024 04004KT 9999 FEW040 BECMG 3010/3012 24005KT TEMPO 3015/3020 24020G40KT TSRA BKN040CB TEMPO 3020/3024 SHRA BKN008 BKN040CB

Alle Angaben unverbindlich und ohne Gewähr. Zeiten genähert.

Für den Verkehrslandeplatz Konstanz werden keine offiziellen Wetterinformationen ausgegeben. Daher werden zur Orientierung Daten des nahegelegenen Flughafens Friedrichshafen dargestellt.

Das Landeentgelt kann bei uns auch mit aerops bezahlt werden. Die App für's Handy ist kostenfrei erhältlich.